sensor_id;sensor_type;location;lat;lon;timestamp;pressure;altitude;pressure_sealevel;temperature;humidity
66857;BME280;53766;50.280;19.160;2022-08-03T00:02:17;98755.44;;;24.31;49.71
66857;BME280;53766;50.280;19.160;2022-08-03T00:04:44;98756.03;;;24.33;49.51
66857;BME280;53766;50.280;19.160;2022-08-03T00:07:12;98750.88;;;24.31;49.28
66857;BME280;53766;50.280;19.160;2022-08-03T00:09:40;98756.25;;;24.31;49.43
66857;BME280;53766;50.280;19.160;2022-08-03T00:12:07;98747.38;;;24.31;49.43
66857;BME280;53766;50.280;19.160;2022-08-03T00:14:35;98745.72;;;24.30;49.11
66857;BME280;53766;50.280;19.160;2022-08-03T00:17:03;98746.56;;;24.30;49.31
66857;BME280;53766;50.280;19.160;2022-08-03T00:19:30;98750.88;;;24.31;49.07
66857;BME280;53766;50.280;19.160;2022-08-03T00:21:58;98748.41;;;24.30;49.21
66857;BME280;53766;50.280;19.160;2022-08-03T00:24:26;98746.31;;;24.32;49.39
66857;BME280;53766;50.280;19.160;2022-08-03T00:26:54;98745.72;;;24.30;49.09
66857;BME280;53766;50.280;19.160;2022-08-03T00:29:21;98746.78;;;24.29;49.11
66857;BME280;53766;50.280;19.160;2022-08-03T00:31:49;98752.16;;;24.29;49.11
66857;BME280;53766;50.280;19.160;2022-08-03T00:34:19;98746.78;;;24.29;48.67
66857;BME280;53766;50.280;19.160;2022-08-03T00:37:06;98750.50;;;24.28;49.15
66857;BME280;53766;50.280;19.160;2022-08-03T00:39:34;98747.25;;;24.26;48.93
66857;BME280;53766;50.280;19.160;2022-08-03T00:42:03;98750.19;;;24.24;49.04
66857;BME280;53766;50.280;19.160;2022-08-03T00:44:38;98749.94;;;24.26;48.72
66857;BME280;53766;50.280;19.160;2022-08-03T00:47:07;98746.44;;;24.25;48.90
66857;BME280;53766;50.280;19.160;2022-08-03T00:49:40;98756.38;;;24.25;48.93
66857;BME280;53766;50.280;19.160;2022-08-03T00:52:09;98751.00;;;24.25;48.89
66857;BME280;53766;50.280;19.160;2022-08-03T00:54:37;98746.66;;;24.23;48.81
66857;BME280;53766;50.280;19.160;2022-08-03T00:57:06;98747.72;;;24.22;48.80
66857;BME280;53766;50.280;19.160;2022-08-03T00:59:33;98747.72;;;24.22;48.87
66857;BME280;53766;50.280;19.160;2022-08-03T01:02:02;98751.47;;;24.21;48.64
66857;BME280;53766;50.280;19.160;2022-08-03T01:04:29;98749.22;;;24.18;48.78
66857;BME280;53766;50.280;19.160;2022-08-03T01:07:26;98748.66;;;24.16;48.61
66857;BME280;53766;50.280;19.160;2022-08-03T01:10:19;98747.84;;;24.16;48.40
66857;BME280;53766;50.280;19.160;2022-08-03T01:13:15;98755.09;;;24.15;48.73
66857;BME280;53766;50.280;19.160;2022-08-03T01:19:11;98755.69;;;24.17;48.50
66857;BME280;53766;50.280;19.160;2022-08-03T01:30:39;98765.28;;;24.13;48.55
66857;BME280;53766;50.280;19.160;2022-08-03T01:33:18;98762.00;;;24.11;48.19
66857;BME280;53766;50.280;19.160;2022-08-03T01:35:51;98763.63;;;24.12;48.08
66857;BME280;53766;50.280;19.160;2022-08-03T01:38:25;98754.50;;;24.13;48.30
66857;BME280;53766;50.280;19.160;2022-08-03T01:40:55;98754.75;;;24.12;48.43
66857;BME280;53766;50.280;19.160;2022-08-03T01:43:26;98748.53;;;24.11;48.38
66857;BME280;53766;50.280;19.160;2022-08-03T01:46:16;98747.16;;;24.09;47.98
66857;BME280;53766;50.280;19.160;2022-08-03T01:48:47;98745.25;;;24.09;48.34
66857;BME280;53766;50.280;19.160;2022-08-03T01:51:17;98753.34;;;24.09;47.99
66857;BME280;53766;50.280;19.160;2022-08-03T01:53:48;98739.88;;;24.09;48.19
66857;BME280;53766;50.280;19.160;2022-08-03T01:56:19;98740.91;;;24.08;47.65
66857;BME280;53766;50.280;19.160;2022-08-03T01:58:49;98744.69;;;24.07;47.83
66857;BME280;53766;50.280;19.160;2022-08-03T02:01:20;98740.34;;;24.06;47.93
66857;BME280;53766;50.280;19.160;2022-08-03T02:03:50;98733.34;;;24.05;48.04
66857;BME280;53766;50.280;19.160;2022-08-03T02:06:29;98738.72;;;24.05;47.89
66857;BME280;53766;50.280;19.160;2022-08-03T02:09:19;98737.91;;;24.05;48.01
66857;BME280;53766;50.280;19.160;2022-08-03T02:11:50;98743.88;;;24.07;47.81
66857;BME280;53766;50.280;19.160;2022-08-03T02:14:19;98747.38;;;24.07;48.08
66857;BME280;53766;50.280;19.160;2022-08-03T02:16:48;98750.06;;;24.07;47.80
66857;BME280;53766;50.280;19.160;2022-08-03T02:19:17;98743.03;;;24.06;47.74
66857;BME280;53766;50.280;19.160;2022-08-03T02:21:46;98746.78;;;24.05;47.66
66857;BME280;53766;50.280;19.160;2022-08-03T02:24:28;98742.47;;;24.04;47.64
66857;BME280;53766;50.280;19.160;2022-08-03T02:26:57;98743.50;;;24.03;47.91
66857;BME280;53766;50.280;19.160;2022-08-03T02:29:28;98743.72;;;24.01;47.98
66857;BME280;53766;50.280;19.160;2022-08-03T02:32:15;98737.31;;;24.02;47.37
66857;BME280;53766;50.280;19.160;2022-08-03T02:34:46;98744.56;;;24.02;47.57
66857;BME280;53766;50.280;19.160;2022-08-03T02:37:18;98743.50;;;24.03;47.58
66857;BME280;53766;50.280;19.160;2022-08-03T02:39:49;98749.94;;;24.02;47.45
66857;BME280;53766;50.280;19.160;2022-08-03T02:42:20;98740.22;;;24.01;47.63
66857;BME280;53766;50.280;19.160;2022-08-03T02:44:50;98741.03;;;24.01;47.66
66857;BME280;53766;50.280;19.160;2022-08-03T02:47:20;98735.91;;;24.00;47.79
66857;BME280;53766;50.280;19.160;2022-08-03T02:49:49;98738.59;;;24.00;47.64
66857;BME280;53766;50.280;19.160;2022-08-03T02:52:20;98733.22;;;24.00;47.50
66857;BME280;53766;50.280;19.160;2022-08-03T02:54:52;98734.84;;;24.01;47.51
66857;BME280;53766;50.280;19.160;2022-08-03T02:57:22;98734.84;;;24.01;47.66
66857;BME280;53766;50.280;19.160;2022-08-03T02:59:51;98738.59;;;24.00;47.34
66857;BME280;53766;50.280;19.160;2022-08-03T03:02:20;98745.03;;;23.99;47.32
66857;BME280;53766;50.280;19.160;2022-08-03T03:04:50;98742.34;;;23.99;47.29
66857;BME280;53766;50.280;19.160;2022-08-03T03:07:39;98749.81;;;23.97;47.15
66857;BME280;53766;50.280;19.160;2022-08-03T03:10:21;98750.63;;;23.97;47.34
66857;BME280;53766;50.280;19.160;2022-08-03T03:12:54;98746.53;;;23.95;47.52
66857;BME280;53766;50.280;19.160;2022-08-03T03:15:26;98749.00;;;23.96;47.08
66857;BME280;53766;50.280;19.160;2022-08-03T03:17:55;98742.81;;;23.96;47.12
66857;BME280;53766;50.280;19.160;2022-08-03T03:20:23;98747.59;;;23.94;47.16
66857;BME280;53766;50.280;19.160;2022-08-03T03:22:58;98755.66;;;23.94;47.09
66857;BME280;53766;50.280;19.160;2022-08-03T03:25:31;98750.28;;;23.94;47.29
66857;BME280;53766;50.280;19.160;2022-08-03T03:27:59;98754.00;;;23.93;47.29
66857;BME280;53766;50.280;19.160;2022-08-03T03:30:28;98764.78;;;23.93;47.28
66857;BME280;53766;50.280;19.160;2022-08-03T03:32:57;98763.97;;;23.92;47.19
66857;BME280;53766;50.280;19.160;2022-08-03T03:35:26;98761.50;;;23.91;47.28
66857;BME280;53766;50.280;19.160;2022-08-03T03:37:54;98763.16;;;23.92;46.97
66857;BME280;53766;50.280;19.160;2022-08-03T03:40:21;98762.34;;;23.91;47.04
66857;BME280;53766;50.280;19.160;2022-08-03T03:42:50;98771.44;;;23.90;46.99
66857;BME280;53766;50.280;19.160;2022-08-03T03:45:18;98770.63;;;23.90;47.30
66857;BME280;53766;50.280;19.160;2022-08-03T03:47:48;98757.19;;;23.90;47.39
66857;BME280;53766;50.280;19.160;2022-08-03T03:50:17;98762.78;;;23.88;47.50
66857;BME280;53766;50.280;19.160;2022-08-03T03:52:45;98765.25;;;23.90;47.33
66857;BME280;53766;50.280;19.160;2022-08-03T03:55:17;98770.63;;;23.90;47.43
66857;BME280;53766;50.280;19.160;2022-08-03T03:57:45;98768.75;;;23.90;47.23
66857;BME280;53766;50.280;19.160;2022-08-03T04:00:13;98777.63;;;23.91;46.97
66857;BME280;53766;50.280;19.160;2022-08-03T04:02:41;98777.63;;;23.91;47.25
66857;BME280;53766;50.280;19.160;2022-08-03T04:05:10;98777.63;;;23.91;47.19
66857;BME280;53766;50.280;19.160;2022-08-03T04:08:05;98776.00;;;23.90;47.28
66857;BME280;53766;50.280;19.160;2022-08-03T04:11:15;98776.81;;;23.90;47.13
66857;BME280;53766;50.280;19.160;2022-08-03T04:14:01;98788.41;;;23.91;46.96
66857;BME280;53766;50.280;19.160;2022-08-03T04:16:35;98778.69;;;23.90;47.16
66857;BME280;53766;50.280;19.160;2022-08-03T04:19:14;98785.13;;;23.89;47.36
66857;BME280;53766;50.280;19.160;2022-08-03T04:21:52;98794.03;;;23.89;47.38
66857;BME280;53766;50.280;19.160;2022-08-03T04:24:26;98789.47;;;23.90;47.04
66857;BME280;53766;50.280;19.160;2022-08-03T04:26:58;98787.81;;;23.89;47.33
66857;BME280;53766;50.280;19.160;2022-08-03T04:29:28;98797.53;;;23.90;47.27
66857;BME280;53766;50.280;19.160;2022-08-03T04:31:59;98791.94;;;23.91;47.34
66857;BME280;53766;50.280;19.160;2022-08-03T04:34:29;98799.16;;;23.91;47.19
66857;BME280;53766;50.280;19.160;2022-08-03T04:36:59;98802.44;;;23.93;47.10
66857;BME280;53766;50.280;19.160;2022-08-03T04:39:30;98802.22;;;23.94;47.42
66857;BME280;53766;50.280;19.160;2022-08-03T04:42:01;98798.72;;;23.94;47.46
66857;BME280;53766;50.280;19.160;2022-08-03T04:44:51;98806.56;;;23.95;47.23
66857;BME280;53766;50.280;19.160;2022-08-03T04:47:29;98802.00;;;23.96;47.46
66857;BME280;53766;50.280;19.160;2022-08-03T04:49:59;98803.63;;;23.97;47.77
66857;BME280;53766;50.280;19.160;2022-08-03T04:52:27;98803.63;;;23.97;47.77
66857;BME280;53766;50.280;19.160;2022-08-03T04:54:54;98792.84;;;23.97;47.75
66857;BME280;53766;50.280;19.160;2022-08-03T04:57:23;98798.81;;;23.99;48.00
66857;BME280;53766;50.280;19.160;2022-08-03T04:59:51;98799.41;;;24.01;47.75
66857;BME280;53766;50.280;19.160;2022-08-03T05:02:30;98797.31;;;24.03;48.09
66857;BME280;53766;50.280;19.160;2022-08-03T05:04:58;98790.31;;;24.02;47.99
66857;BME280;53766;50.280;19.160;2022-08-03T05:07:26;98799.78;;;24.05;48.14
66857;BME280;53766;50.280;19.160;2022-08-03T05:10:04;98801.78;;;24.09;47.88
66857;BME280;53766;50.280;19.160;2022-08-03T05:12:47;98797.56;;;24.13;48.13
66857;BME280;53766;50.280;19.160;2022-08-03T05:15:15;98801.66;;;24.16;48.32
66857;BME280;53766;50.280;19.160;2022-08-03T05:17:42;98800.38;;;24.18;48.12
66857;BME280;53766;50.280;19.160;2022-08-03T05:20:10;98803.66;;;24.20;48.51
66857;BME280;53766;50.280;19.160;2022-08-03T05:22:39;98800.25;;;24.25;48.42
66857;BME280;53766;50.280;19.160;2022-08-03T05:25:06;98800.47;;;24.23;48.36
66857;BME280;53766;50.280;19.160;2022-08-03T05:27:34;98802.03;;;24.19;48.47
66857;BME280;53766;50.280;19.160;2022-08-03T05:30:02;98800.38;;;24.18;48.66
66857;BME280;53766;50.280;19.160;2022-08-03T05:32:50;98809.03;;;24.20;48.98
66857;BME280;53766;50.280;19.160;2022-08-03T05:35:18;98802.13;;;24.25;48.80
66857;BME280;53766;50.280;19.160;2022-08-03T05:38:06;98808.09;;;24.27;48.92
66857;BME280;53766;50.280;19.160;2022-08-03T05:40:35;98807.16;;;24.21;49.40
66857;BME280;53766;50.280;19.160;2022-08-03T05:43:03;98808.44;;;24.18;49.43
66857;BME280;53766;50.280;19.160;2022-08-03T05:45:31;98808.22;;;24.20;49.27
66857;BME280;53766;50.280;19.160;2022-08-03T05:47:58;98813.13;;;24.23;49.45
66857;BME280;53766;50.280;19.160;2022-08-03T05:50:26;98811.84;;;24.26;49.27
66857;BME280;53766;50.280;19.160;2022-08-03T05:52:54;98814.06;;;24.29;49.21
66857;BME280;53766;50.280;19.160;2022-08-03T05:55:24;98814.06;;;24.29;48.64
66857;BME280;53766;50.280;19.160;2022-08-03T05:57:51;98808.47;;;24.30;49.24
66857;BME280;53766;50.280;19.160;2022-08-03T06:00:23;98811.16;;;24.30;49.00
66857;BME280;53766;50.280;19.160;2022-08-03T06:02:52;98809.28;;;24.31;49.31
66857;BME280;53766;50.280;19.160;2022-08-03T06:05:19;98807.19;;;24.33;49.42
66857;BME280;53766;50.280;19.160;2022-08-03T06:07:47;98810.91;;;24.32;49.48
66857;BME280;53766;50.280;19.160;2022-08-03T06:10:14;98811.72;;;24.32;49.47
66857;BME280;53766;50.280;19.160;2022-08-03T06:13:02;98812.56;;;24.33;49.55
66857;BME280;53766;50.280;19.160;2022-08-03T06:15:29;98815.84;;;24.35;49.61
66857;BME280;53766;50.280;19.160;2022-08-03T06:17:59;98815.00;;;24.34;49.67
66857;BME280;53766;50.280;19.160;2022-08-03T06:20:28;98813.16;;;24.35;49.87
66857;BME280;53766;50.280;19.160;2022-08-03T06:22:56;98817.94;;;24.33;49.74
66857;BME280;53766;50.280;19.160;2022-08-03T06:25:27;98821.06;;;24.30;50.06
66857;BME280;53766;50.280;19.160;2022-08-03T06:27:55;98816.28;;;24.32;49.74
66857;BME280;53766;50.280;19.160;2022-08-03T06:30:23;98820.03;;;24.31;49.58
66857;BME280;53766;50.280;19.160;2022-08-03T06:32:50;98822.25;;;24.34;49.70
66857;BME280;53766;50.280;19.160;2022-08-03T06:35:18;98817.47;;;24.36;50.29
66857;BME280;53766;50.280;19.160;2022-08-03T06:37:48;98819.13;;;24.37;49.96
66857;BME280;53766;50.280;19.160;2022-08-03T06:40:18;98819.44;;;24.40;49.87
66857;BME280;53766;50.280;19.160;2022-08-03T06:42:50;98822.94;;;24.41;50.39
66857;BME280;53766;50.280;19.160;2022-08-03T06:45:18;98833.50;;;24.42;50.37
66857;BME280;53766;50.280;19.160;2022-08-03T06:47:45;98826.22;;;24.43;50.28
66857;BME280;53766;50.280;19.160;2022-08-03T06:50:13;98835.97;;;24.44;50.33
66857;BME280;53766;50.280;19.160;2022-08-03T06:52:45;98829.75;;;24.43;49.79
66857;BME280;53766;50.280;19.160;2022-08-03T06:55:13;98833.50;;;24.42;50.20
66857;BME280;53766;50.280;19.160;2022-08-03T06:57:41;98826.47;;;24.41;50.04
66857;BME280;53766;50.280;19.160;2022-08-03T07:00:09;98833.28;;;24.44;50.58
66857;BME280;53766;50.280;19.160;2022-08-03T07:02:39;98831.16;;;24.46;50.42
66857;BME280;53766;50.280;19.160;2022-08-03T07:05:08;98840.06;;;24.47;50.42
66857;BME280;53766;50.280;19.160;2022-08-03T07:07:36;98832.78;;;24.47;50.29
66857;BME280;53766;50.280;19.160;2022-08-03T07:10:05;98833.41;;;24.49;50.32
66857;BME280;53766;50.280;19.160;2022-08-03T07:12:34;98824.72;;;24.47;49.91
66857;BME280;53766;50.280;19.160;2022-08-03T07:15:02;98820.16;;;24.48;50.46
66857;BME280;53766;50.280;19.160;2022-08-03T07:17:34;98830.72;;;24.49;50.85
66857;BME280;53766;50.280;19.160;2022-08-03T07:20:05;98823.22;;;24.51;50.55
66857;BME280;53766;50.280;19.160;2022-08-03T07:22:34;98821.34;;;24.52;50.59
66857;BME280;53766;50.280;19.160;2022-08-03T07:25:02;98827.09;;;24.55;50.97
66857;BME280;53766;50.280;19.160;2022-08-03T07:27:30;98815.72;;;24.53;50.38
66857;BME280;53766;50.280;19.160;2022-08-03T07:29:58;98825.47;;;24.54;50.06
66857;BME280;53766;50.280;19.160;2022-08-03T07:32:26;98820.06;;;24.54;50.76
66857;BME280;53766;50.280;19.160;2022-08-03T07:34:54;98824.97;;;24.57;51.08
66857;BME280;53766;50.280;19.160;2022-08-03T07:37:28;98827.19;;;24.60;50.88
66857;BME280;53766;50.280;19.160;2022-08-03T07:39:56;98815.84;;;24.58;50.46
66857;BME280;53766;50.280;19.160;2022-08-03T07:42:25;98826.59;;;24.58;51.07
66857;BME280;53766;50.280;19.160;2022-08-03T07:44:52;98823.69;;;24.60;51.01
66857;BME280;53766;50.280;19.160;2022-08-03T07:47:23;98818.66;;;24.63;51.13
66857;BME280;53766;50.280;19.160;2022-08-03T07:49:51;98828.13;;;24.66;51.31
66857;BME280;53766;50.280;19.160;2022-08-03T07:52:20;98823.56;;;24.67;51.03
66857;BME280;53766;50.280;19.160;2022-08-03T07:55:07;98821.47;;;24.69;51.26
66857;BME280;53766;50.280;19.160;2022-08-03T07:57:35;98824.72;;;24.71;51.22
66857;BME280;53766;50.280;19.160;2022-08-03T08:00:05;98822.63;;;24.73;50.89
66857;BME280;53766;50.280;19.160;2022-08-03T08:02:35;98824.50;;;24.72;51.09
66857;BME280;53766;50.280;19.160;2022-08-03T08:05:02;98822.03;;;24.71;50.66
66857;BME280;53766;50.280;19.160;2022-08-03T08:07:32;98819.34;;;24.71;50.60
66857;BME280;53766;50.280;19.160;2022-08-03T08:10:00;98818.91;;;24.74;51.24
66857;BME280;53766;50.280;19.160;2022-08-03T08:12:27;98825.41;;;24.78;51.05
66857;BME280;53766;50.280;19.160;2022-08-03T08:14:55;98824.38;;;24.79;51.46
66857;BME280;53766;50.280;19.160;2022-08-03T08:17:23;98824.97;;;24.81;51.04
66857;BME280;53766;50.280;19.160;2022-08-03T08:19:51;98824.47;;;24.84;51.35
66857;BME280;53766;50.280;19.160;2022-08-03T08:22:19;98821.56;;;24.86;51.14
66857;BME280;53766;50.280;19.160;2022-08-03T08:24:58;98829.16;;;24.89;51.33
66857;BME280;53766;50.280;19.160;2022-08-03T08:27:28;98821.91;;;24.89;51.27
66857;BME280;53766;50.280;19.160;2022-08-03T08:30:20;98821.91;;;24.89;50.88
66857;BME280;53766;50.280;19.160;2022-08-03T08:32:49;98826.22;;;24.90;50.96
66857;BME280;53766;50.280;19.160;2022-08-03T08:35:17;98825.19;;;24.91;51.12
66857;BME280;53766;50.280;19.160;2022-08-03T08:37:46;98821.66;;;24.91;50.74
66857;BME280;53766;50.280;19.160;2022-08-03T08:40:20;98835.13;;;24.91;50.85
66857;BME280;53766;50.280;19.160;2022-08-03T08:42:49;98830.56;;;24.91;51.08
66857;BME280;53766;50.280;19.160;2022-08-03T08:45:25;98830.44;;;24.86;50.27
66857;BME280;53766;50.280;19.160;2022-08-03T08:47:56;98827.75;;;24.86;50.81
66857;BME280;53766;50.280;19.160;2022-08-03T08:50:29;98836.41;;;24.88;50.74
66857;BME280;53766;50.280;19.160;2022-08-03T08:53:01;98834.53;;;24.89;50.68
66857;BME280;53766;50.280;19.160;2022-08-03T08:55:29;98830.00;;;24.89;50.98
66857;BME280;53766;50.280;19.160;2022-08-03T08:58:20;98839.22;;;24.93;50.76
66857;BME280;53766;50.280;19.160;2022-08-03T09:00:49;98830.09;;;24.94;50.88
66857;BME280;53766;50.280;19.160;2022-08-03T09:03:16;98834.31;;;24.90;50.01
66857;BME280;53766;50.280;19.160;2022-08-03T09:06:00;98832.69;;;24.89;50.64
66857;BME280;53766;50.280;19.160;2022-08-03T09:08:29;98832.09;;;24.87;50.45
66857;BME280;53766;50.280;19.160;2022-08-03T09:10:58;98831.03;;;24.88;49.98
66857;BME280;53766;50.280;19.160;2022-08-03T09:13:26;98826.81;;;24.92;50.54
66857;BME280;53766;50.280;19.160;2022-08-03T09:16:15;98829.28;;;24.94;50.51
66857;BME280;53766;50.280;19.160;2022-08-03T09:18:46;98831.13;;;24.93;50.51
66857;BME280;53766;50.280;19.160;2022-08-03T09:21:20;98833.81;;;24.93;50.29
66857;BME280;53766;50.280;19.160;2022-08-03T09:24:00;98823.03;;;24.93;50.37
66857;BME280;53766;50.280;19.160;2022-08-03T09:26:34;98820.47;;;24.98;50.12
66857;BME280;53766;50.280;19.160;2022-08-03T09:31:43;98819.53;;;25.04;50.29
66857;BME280;53766;50.280;19.160;2022-08-03T09:34:13;98824.91;;;25.04;49.83
66857;BME280;53766;50.280;19.160;2022-08-03T09:36:47;98817.88;;;25.03;50.32
66857;BME280;53766;50.280;19.160;2022-08-03T09:39:20;98819.03;;;25.08;50.27
66857;BME280;53766;50.280;19.160;2022-08-03T09:42:11;98817.75;;;25.10;49.83
66857;BME280;53766;50.280;19.160;2022-08-03T09:44:51;98812.13;;;25.12;50.07
66857;BME280;53766;50.280;19.160;2022-08-03T09:47:32;98813.50;;;25.14;50.00
66857;BME280;53766;50.280;19.160;2022-08-03T09:50:02;98815.97;;;25.16;49.98
66857;BME280;53766;50.280;19.160;2022-08-03T09:52:37;98801.94;;;25.14;50.07
66857;BME280;53766;50.280;19.160;2022-08-03T09:55:19;98801.44;;;25.17;49.64
66857;BME280;53766;50.280;19.160;2022-08-03T09:58:07;98810.94;;;25.19;49.40
66857;BME280;53766;50.280;19.160;2022-08-03T10:00:59;98806.13;;;25.21;49.54
66857;BME280;53766;50.280;19.160;2022-08-03T10:03:29;98803.78;;;25.25;49.35
66857;BME280;53766;50.280;19.160;2022-08-03T10:05:57;98805.44;;;25.26;49.14
66857;BME280;53766;50.280;19.160;2022-08-03T10:08:26;98803.28;;;25.28;49.30
66857;BME280;53766;50.280;19.160;2022-08-03T10:10:53;98804.13;;;25.29;49.14
66857;BME280;53766;50.280;19.160;2022-08-03T10:13:21;98803.63;;;25.32;49.04
66857;BME280;53766;50.280;19.160;2022-08-03T10:15:49;98799.91;;;25.33;48.71
66857;BME280;53766;50.280;19.160;2022-08-03T10:18:39;98804.44;;;25.32;48.54
66857;BME280;53766;50.280;19.160;2022-08-03T10:21:09;98801.19;;;25.30;48.89
66857;BME280;53766;50.280;19.160;2022-08-03T10:23:40;98798.75;;;25.29;48.62
66857;BME280;53766;50.280;19.160;2022-08-03T10:26:12;98797.44;;;25.31;48.71
66857;BME280;53766;50.280;19.160;2022-08-03T10:28:47;98791.56;;;25.34;48.74
66857;BME280;53766;50.280;19.160;2022-08-03T10:31:17;98789.44;;;25.36;48.82
66857;BME280;53766;50.280;19.160;2022-08-03T10:33:49;98789.78;;;25.40;48.66
66857;BME280;53766;50.280;19.160;2022-08-03T10:36:23;98784.16;;;25.41;47.84
66857;BME280;53766;50.280;19.160;2022-08-03T10:38:55;98783.09;;;25.42;48.34
66857;BME280;53766;50.280;19.160;2022-08-03T10:41:25;98787.16;;;25.45;48.11
66857;BME280;53766;50.280;19.160;2022-08-03T10:44:01;98795.03;;;25.47;48.19
66857;BME280;53766;50.280;19.160;2022-08-03T10:46:29;98791.59;;;25.51;48.35
66857;BME280;53766;50.280;19.160;2022-08-03T10:48:57;98781.63;;;25.52;47.92
66857;BME280;53766;50.280;19.160;2022-08-03T10:51:26;98785.72;;;25.54;47.98
66857;BME280;53766;50.280;19.160;2022-08-03T10:53:58;98786.56;;;25.55;47.95
66857;BME280;53766;50.280;19.160;2022-08-03T10:59:18;98785.25;;;25.57;48.15
66857;BME280;53766;50.280;19.160;2022-08-03T11:01:55;98779.34;;;25.60;47.53
66857;BME280;53766;50.280;19.160;2022-08-03T11:04:27;98776.41;;;25.62;47.30
66857;BME280;53766;50.280;19.160;2022-08-03T11:09:55;98769.47;;;25.66;47.68
66857;BME280;53766;50.280;19.160;2022-08-03T11:12:31;98765.72;;;25.67;47.40
66857;BME280;53766;50.280;19.160;2022-08-03T11:15:04;98766.28;;;25.69;46.50
66857;BME280;53766;50.280;19.160;2022-08-03T11:17:33;98765.25;;;25.70;47.41
66857;BME280;53766;50.280;19.160;2022-08-03T11:20:54;98768.25;;;25.74;46.81
66857;BME280;53766;50.280;19.160;2022-08-03T11:23:45;98765.31;;;25.75;47.03
66857;BME280;53766;50.280;19.160;2022-08-03T11:26:32;98764.84;;;25.78;46.99
66857;BME280;53766;50.280;19.160;2022-08-03T11:29:30;98761.88;;;25.80;46.85
66857;BME280;53766;50.280;19.160;2022-08-03T11:31:58;98763.53;;;25.81;47.00
66857;BME280;53766;50.280;19.160;2022-08-03T11:34:25;98757.28;;;25.80;47.28
66857;BME280;53766;50.280;19.160;2022-08-03T11:37:28;98756.25;;;25.81;47.14
66857;BME280;53766;50.280;19.160;2022-08-03T11:40:00;98758.44;;;25.84;46.45
66857;BME280;53766;50.280;19.160;2022-08-03T11:45:06;98748.50;;;25.85;46.60
66857;BME280;53766;50.280;19.160;2022-08-03T11:47:36;98748.22;;;25.86;46.47
66857;BME280;53766;50.280;19.160;2022-08-03T11:50:18;98747.19;;;25.88;46.22
66857;BME280;53766;50.280;19.160;2022-08-03T11:52:48;98745.09;;;25.90;45.91
66857;BME280;53766;50.280;19.160;2022-08-03T11:55:18;98743.44;;;25.89;45.86
66857;BME280;53766;50.280;19.160;2022-08-03T11:57:48;98732.16;;;25.92;44.73
66857;BME280;53766;50.280;19.160;2022-08-03T12:00:36;98730.50;;;25.91;45.29
66857;BME280;53766;50.280;19.160;2022-08-03T12:03:14;98731.81;;;25.88;44.10
66857;BME280;53766;50.280;19.160;2022-08-03T12:05:49;98740.13;;;25.86;44.92
66857;BME280;53766;50.280;19.160;2022-08-03T12:10:55;98732.63;;;25.89;45.10
66857;BME280;53766;50.280;19.160;2022-08-03T12:13:23;98723.50;;;25.90;45.35
66857;BME280;53766;50.280;19.160;2022-08-03T12:16:22;98726.78;;;25.92;45.10
66857;BME280;53766;50.280;19.160;2022-08-03T12:18:58;98728.91;;;25.90;44.49
66857;BME280;53766;50.280;19.160;2022-08-03T12:21:26;98724.88;;;25.92;43.89
66857;BME280;53766;50.280;19.160;2022-08-03T12:24:03;98722.19;;;25.92;42.92
66857;BME280;53766;50.280;19.160;2022-08-03T12:26:42;98730.03;;;25.94;43.59
66857;BME280;53766;50.280;19.160;2022-08-03T12:29:24;98718.41;;;25.93;44.05
66857;BME280;53766;50.280;19.160;2022-08-03T12:31:52;98715.47;;;25.95;43.93
66857;BME280;53766;50.280;19.160;2022-08-03T12:34:20;98709.25;;;25.94;42.69
66857;BME280;53766;50.280;19.160;2022-08-03T12:36:53;98716.03;;;25.97;43.39
66857;BME280;53766;50.280;19.160;2022-08-03T12:39:25;98715.81;;;25.98;43.73
66857;BME280;53766;50.280;19.160;2022-08-03T12:41:55;98709.31;;;25.99;43.82
66857;BME280;53766;50.280;19.160;2022-08-03T12:44:31;98699.91;;;26.02;43.87
66857;BME280;53766;50.280;19.160;2022-08-03T12:47:00;98712.34;;;26.03;44.06
66857;BME280;53766;50.280;19.160;2022-08-03T12:49:52;98704.03;;;26.04;43.99
66857;BME280;53766;50.280;19.160;2022-08-03T12:52:21;98699.44;;;26.05;43.96
66857;BME280;53766;50.280;19.160;2022-08-03T12:54:56;98701.06;;;26.06;43.92
66857;BME280;53766;50.280;19.160;2022-08-03T12:57:25;98709.72;;;26.08;42.20
66857;BME280;53766;50.280;19.160;2022-08-03T13:00:13;98708.56;;;26.04;42.61
66857;BME280;53766;50.280;19.160;2022-08-03T13:03:03;98703.69;;;26.01;42.74
66857;BME280;53766;50.280;19.160;2022-08-03T13:05:52;98706.88;;;25.98;43.00
66857;BME280;53766;50.280;19.160;2022-08-03T13:08:22;98697.16;;;25.97;42.72
66857;BME280;53766;50.280;19.160;2022-08-03T13:10:50;98696.56;;;25.95;43.06
66857;BME280;53766;50.280;19.160;2022-08-03T13:13:36;98697.66;;;25.94;43.34
66857;BME280;53766;50.280;19.160;2022-08-03T13:16:04;98694.38;;;25.92;43.61
66857;BME280;53766;50.280;19.160;2022-08-03T13:18:32;98696.81;;;25.93;43.47
66857;BME280;53766;50.280;19.160;2022-08-03T13:21:00;98697.91;;;25.92;43.57
66857;BME280;53766;50.280;19.160;2022-08-03T13:23:47;98697.66;;;25.94;43.90
66857;BME280;53766;50.280;19.160;2022-08-03T13:26:15;98701.41;;;25.93;44.25
66857;BME280;53766;50.280;19.160;2022-08-03T13:28:42;98695.78;;;25.94;44.04
66857;BME280;53766;50.280;19.160;2022-08-03T13:31:10;98693.38;;;25.98;44.24
66857;BME280;53766;50.280;19.160;2022-08-03T13:33:37;98696.63;;;26.00;44.49
66857;BME280;53766;50.280;19.160;2022-08-03T13:36:06;98697.53;;;26.05;44.42
66857;BME280;53766;50.280;19.160;2022-08-03T13:38:34;98697.59;;;26.11;44.58
66857;BME280;53766;50.280;19.160;2022-08-03T13:41:02;98694.66;;;26.12;44.46
66857;BME280;53766;50.280;19.160;2022-08-03T13:43:31;98690.41;;;26.16;44.23
66857;BME280;53766;50.280;19.160;2022-08-03T13:45:58;98696.94;;;26.20;42.84